Time,TemperatureF,DewpointF,PressureIn,WindDirection,WindDirectionDegrees,WindSpeedMPH,WindSpeedGustMPH,Humidity,HourlyPrecipIn,Conditions,Clouds,dailyrainin,SoftwareType,DateUTC
2013-10-03 00:08:00,69.1,66.0,30.14,SSE,159,0.0,-999.0,88,-99.99,,,0.00,weatherlink.com 1.10,2013-10-03 05:08:00,
2013-10-03 00:23:00,68.5,65.0,30.13,SSE,159,0.0,-999.0,89,-99.99,,,0.00,weatherlink.com 1.10,2013-10-03 05:23:00,
2013-10-03 00:38:00,68.4,65.0,30.13,SSE,159,0.0,-999.0,89,-99.99,,,0.00,weatherlink.com 1.10,2013-10-03 05:38:00,
2013-10-03 00:53:00,68.6,65.0,30.13,SSE,159,0.0,-999.0,88,-99.99,,,0.00,weatherlink.com 1.10,2013-10-03 05:53:00,
2013-10-03 01:08:00,68.9,65.0,30.13,SSE,159,0.0,-999.0,87,-99.99,,,0.00,weatherlink.com 1.10,2013-10-03 06:08:00,
2013-10-03 01:23:00,68.4,65.0,30.13,SSE,159,0.0,-999.0,88,-99.99,,,0.00,weatherlink.com 1.10,2013-10-03 06:23:00,
2013-10-03 01:38:00,67.9,65.0,30.13,SSE,159,0.0,-999.0,89,-99.99,,,0.00,weatherlink.com 1.10,2013-10-03 06:38:00,
2013-10-03 01:53:00,67.7,65.0,30.12,SSE,159,0.0,-999.0,90,-99.99,,,0.00,weatherlink.com 1.10,2013-10-03 06:53:00,
2013-10-03 02:08:00,67.5,65.0,30.12,SSE,159,0.0,-999.0,90,-99.99,,,0.00,weatherlink.com 1.10,2013-10-03 07:08:00,
2013-10-03 02:23:00,67.3,64.0,30.11,SSE,159,0.0,-999.0,90,-99.99,,,0.00,weatherlink.com 1.10,2013-10-03 07:23:00,
2013-10-03 02:38:00,67.3,64.0,30.11,SSE,159,0.0,-999.0,90,-99.99,,,0.00,weatherlink.com 1.10,2013-10-03 07:38:00,
2013-10-03 02:53:00,67.4,65.0,30.11,SSE,159,0.0,-999.0,90,-99.99,,,0.00,weatherlink.com 1.10,2013-10-03 07:53:00,
2013-10-03 03:08:00,67.7,64.0,30.11,SSE,159,1.0,-999.0,88,-99.99,,,0.00,weatherlink.com 1.10,2013-10-03 08:08:00,
2013-10-03 03:23:00,67.9,64.0,30.11,SSE,159,0.0,-999.0,88,-99.99,,,0.00,weatherlink.com 1.10,2013-10-03 08:23:00,
2013-10-03 03:38:00,67.7,64.0,30.11,SSE,159,0.0,-999.0,88,-99.99,,,0.00,weatherlink.com 1.10,2013-10-03 08:38:00,
2013-10-03 03:53:00,67.5,64.0,30.11,SSE,159,0.0,-999.0,89,-99.99,,,0.00,weatherlink.com 1.10,2013-10-03 08:53:00,
2013-10-03 04:08:00,67.2,64.0,30.11,SSE,159,0.0,-999.0,89,-99.99,,,0.00,weatherlink.com 1.10,2013-10-03 09:08:00,
2013-10-03 04:23:00,67.5,64.0,30.11,SSE,159,0.0,-999.0,88,-99.99,,,0.00,weatherlink.com 1.10,2013-10-03 09:23:00,
2013-10-03 04:38:00,67.6,64.0,30.11,SSE,159,0.0,-999.0,88,-99.99,,,0.00,weatherlink.com 1.10,2013-10-03 09:38:00,
2013-10-03 04:53:00,66.6,63.0,30.12,SSE,159,0.0,-999.0,89,-99.99,,,0.00,weatherlink.com 1.10,2013-10-03 09:53:00,
2013-10-03 05:08:00,65.9,63.0,30.12,SSE,159,0.0,-999.0,91,-99.99,,,0.00,weatherlink.com 1.10,2013-10-03 10:08:00,
2013-10-03 05:23:00,65.4,63.0,30.12,SSE,159,0.0,-999.0,91,-99.99,,,0.00,weatherlink.com 1.10,2013-10-03 10:23:00,
2013-10-03 05:38:00,65.4,63.0,30.12,SSE,159,0.0,-999.0,91,-99.99,,,0.00,weatherlink.com 1.10,2013-10-03 10:38:00,
2013-10-03 05:53:00,65.5,63.0,30.13,SSE,159,0.0,-999.0,91,-99.99,,,0.00,weatherlink.com 1.10,2013-10-03 10:53:00,
2013-10-03 06:08:00,65.7,63.0,30.13,SSE,159,0.0,-999.0,91,-99.99,,,0.00,weatherlink.com 1.10,2013-10-03 11:08:00,
2013-10-03 06:23:00,65.7,63.0,30.13,SSE,159,0.0,-999.0,91,-99.99,,,0.00,weatherlink.com 1.10,2013-10-03 11:23:00,
2013-10-03 06:38:00,65.4,63.0,30.13,SSE,159,0.0,-999.0,91,-99.99,,,0.00,weatherlink.com 1.10,2013-10-03 11:38:00,
2013-10-03 06:53:00,65.2,63.0,30.14,SSE,157,0.0,-999.0,91,-99.99,,,0.00,weatherlink.com 1.10,2013-10-03 11:53:00,
2013-10-03 07:08:00,65.3,63.0,30.14,SSE,157,0.0,-999.0,91,-99.99,,,0.00,weatherlink.com 1.10,2013-10-03 12:08:00,
2013-10-03 07:23:00,66.1,63.0,30.15,ESE,114,0.0,-999.0,90,-99.99,,,0.00,weatherlink.com 1.10,2013-10-03 12:23:00,
2013-10-03 07:38:00,67.0,63.0,30.15,ESE,113,0.0,-999.0,88,-99.99,,,0.00,weatherlink.com 1.10,2013-10-03 12:38:00,
2013-10-03 07:53:00,67.1,64.0,30.15,ESE,113,0.0,-999.0,89,-99.99,,,0.00,weatherlink.com 1.10,2013-10-03 12:53:00,
2013-10-03 08:08:00,68.6,65.0,30.15,ESE,113,1.0,-999.0,87,-99.99,,,0.00,weatherlink.com 1.10,2013-10-03 13:08:00,
2013-10-03 08:24:00,70.4,65.0,30.16,ESE,113,0.0,-999.0,84,-99.99,,,0.00,weatherlink.com 1.10,2013-10-03 13:24:00,
2013-10-03 08:39:00,72.1,66.0,30.16,ESE,113,0.0,-999.0,80,-99.99,,,0.00,weatherlink.com 1.10,2013-10-03 13:39:00,
2013-10-03 08:54:00,73.2,65.0,30.16,SE,141,4.0,-999.0,75,-99.99,,,0.00,weatherlink.com 1.10,2013-10-03 13:54:00,
2013-10-03 09:09:00,73.9,64.0,30.16,SE,142,7.0,-999.0,71,-99.99,,,0.00,weatherlink.com 1.10,2013-10-03 14:09:00,
2013-10-03 09:24:00,74.5,65.0,30.16,South,182,5.0,-999.0,71,-99.99,,,0.00,weatherlink.com 1.10,2013-10-03 14:24:00,
2013-10-03 09:39:00,74.7,64.0,30.16,SSW,193,2.0,-999.0,69,-99.99,,,0.00,weatherlink.com 1.10,2013-10-03 14:39:00,
2013-10-03 09:54:00,74.8,63.0,30.17,SE,140,6.0,-999.0,67,-99.99,,,0.00,weatherlink.com 1.10,2013-10-03 14:54:00,
2013-10-03 10:09:00,75.4,64.0,30.17,SSE,155,0.0,-999.0,68,-99.99,,,0.00,weatherlink.com 1.10,2013-10-03 15:09:00,
2013-10-03 10:24:00,76.0,63.0,30.17,SE,144,1.0,-999.0,65,-99.99,,,0.00,weatherlink.com 1.10,2013-10-03 15:24:00,
2013-10-03 10:39:00,76.3,64.0,30.16,SE,142,6.0,-999.0,65,-99.99,,,0.00,weatherlink.com 1.10,2013-10-03 15:39:00,
2013-10-03 10:54:00,76.5,62.0,30.17,SSW,192,9.0,-999.0,62,-99.99,,,0.00,weatherlink.com 1.10,2013-10-03 15:54:00,
2013-10-03 11:09:00,77.0,63.0,30.16,SSE,161,6.0,-999.0,62,-99.99,,,0.00,weatherlink.com 1.10,2013-10-03 16:09:00,
2013-10-03 11:24:00,77.4,63.0,30.16,South,176,7.0,-999.0,62,-99.99,,,0.00,weatherlink.com 1.10,2013-10-03 16:24:00,
2013-10-03 11:39:00,78.1,62.0,30.16,SSE,148,7.0,-999.0,59,-99.99,,,0.00,weatherlink.com 1.10,2013-10-03 16:39:00,
2013-10-03 11:54:00,78.6,62.0,30.15,South,169,4.0,-999.0,58,-99.99,,,0.00,weatherlink.com 1.10,2013-10-03 16:54:00,
2013-10-03 12:09:00,78.3,63.0,30.15,SE,134,6.0,-999.0,59,-99.99,,,0.00,weatherlink.com 1.10,2013-10-03 17:09:00,
2013-10-03 12:24:00,79.0,62.0,30.15,SSE,161,4.0,-999.0,57,-99.99,,,0.00,weatherlink.com 1.10,2013-10-03 17:24:00,
2013-10-03 12:39:00,78.9,62.0,30.14,SE,130,5.0,-999.0,56,-99.99,,,0.00,weatherlink.com 1.10,2013-10-03 17:39:00,
2013-10-03 12:54:00,79.2,62.0,30.13,SSW,204,6.0,-999.0,55,-99.99,,,0.00,weatherlink.com 1.10,2013-10-03 17:54:00,
2013-10-03 13:09:00,79.4,62.0,30.13,SSE,149,1.0,-999.0,56,-99.99,,,0.00,weatherlink.com 1.10,2013-10-03 18:09:00,
2013-10-03 13:24:00,79.1,61.0,30.12,ENE,74,2.0,-999.0,55,-99.99,,,0.00,weatherlink.com 1.10,2013-10-03 18:24:00,
2013-10-03 13:39:00,79.4,63.0,30.12,South,176,7.0,-999.0,57,-99.99,,,0.00,weatherlink.com 1.10,2013-10-03 18:39:00,
2013-10-03 13:54:00,79.0,63.0,30.11,SE,141,5.0,-999.0,58,-99.99,,,0.00,weatherlink.com 1.10,2013-10-03 18:54:00,
2013-10-03 14:09:00,79.8,63.0,30.11,SSW,203,3.0,-999.0,56,-99.99,,,0.00,weatherlink.com 1.10,2013-10-03 19:09:00,
2013-10-03 14:24:00,79.9,63.0,30.10,SE,133,1.0,-999.0,57,-99.99,,,0.00,weatherlink.com 1.10,2013-10-03 19:24:00,
2013-10-03 14:39:00,80.0,63.0,30.10,SSW,203,5.0,-999.0,56,-99.99,,,0.00,weatherlink.com 1.10,2013-10-03 19:39:00,
2013-10-03 14:54:00,80.7,63.0,30.10,South,184,5.0,-999.0,55,-99.99,,,0.00,weatherlink.com 1.10,2013-10-03 19:54:00,
2013-10-03 15:09:00,80.2,63.0,30.09,ENE,76,2.0,-999.0,56,-99.99,,,0.00,weatherlink.com 1.10,2013-10-03 20:09:00,
2013-10-03 15:24:00,80.5,63.0,30.09,SE,140,6.0,-999.0,56,-99.99,,,0.00,weatherlink.com 1.10,2013-10-03 20:24:00,
2013-10-03 15:39:00,79.7,63.0,30.09,SE,132,6.0,-999.0,57,-99.99,,,0.00,weatherlink.com 1.10,2013-10-03 20:39:00,
2013-10-03 15:54:00,79.7,64.0,30.09,SE,131,0.0,-999.0,58,-99.99,,,0.00,weatherlink.com 1.10,2013-10-03 20:54:00,
2013-10-03 16:09:00,79.8,64.0,30.09,SSE,153,2.0,-999.0,58,-99.99,,,0.00,weatherlink.com 1.10,2013-10-03 21:09:00,
2013-10-03 16:24:00,79.3,63.0,30.08,SE,140,5.0,-999.0,58,-99.99,,,0.00,weatherlink.com 1.10,2013-10-03 21:24:00,
2013-10-03 16:39:00,79.6,64.0,30.08,ESE,111,5.0,-999.0,60,-99.99,,,0.00,weatherlink.com 1.10,2013-10-03 21:39:00,
2013-10-03 16:54:00,79.4,64.0,30.09,ESE,117,7.0,-999.0,60,-99.99,,,0.00,weatherlink.com 1.10,2013-10-03 21:54:00,
2013-10-03 17:09:00,78.9,64.0,30.09,SSE,164,4.0,-999.0,61,-99.99,,,0.00,weatherlink.com 1.10,2013-10-03 22:09:00,
2013-10-03 17:24:00,78.8,65.0,30.09,South,173,0.0,-999.0,62,-99.99,,,0.00,weatherlink.com 1.10,2013-10-03 22:24:00,
2013-10-03 17:39:00,78.7,65.0,30.09,SSE,152,2.0,-999.0,63,-99.99,,,0.00,weatherlink.com 1.10,2013-10-03 22:39:00,
2013-10-03 17:54:00,77.5,65.0,30.09,SSE,150,1.0,-999.0,66,-99.99,,,0.00,weatherlink.com 1.10,2013-10-03 22:54:00,
2013-10-03 18:09:00,76.6,66.0,30.09,SSE,152,0.0,-999.0,69,-99.99,,,0.00,weatherlink.com 1.10,2013-10-03 23:09:00,
2013-10-03 18:39:00,74.9,66.0,30.08,SSE,152,1.0,-999.0,73,-99.99,,,0.00,weatherlink.com 1.10,2013-10-03 23:39:00,
2013-10-03 18:54:00,74.1,66.0,30.08,SSE,152,0.0,-999.0,75,-99.99,,,0.00,weatherlink.com 1.10,2013-10-03 23:54:00,
2013-10-03 19:09:00,73.5,66.0,30.09,SSE,152,0.0,-999.0,76,-99.99,,,0.00,weatherlink.com 1.10,2013-10-04 00:09:00,
2013-10-03 19:24:00,73.3,65.0,30.09,SSE,152,0.0,-999.0,76,-99.99,,,0.00,weatherlink.com 1.10,2013-10-04 00:24:00,
2013-10-03 19:39:00,72.8,65.0,30.10,SSE,152,0.0,-999.0,77,-99.99,,,0.00,weatherlink.com 1.10,2013-10-04 00:39:00,
2013-10-03 19:54:00,72.2,65.0,30.10,SSE,152,0.0,-999.0,79,-99.99,,,0.00,weatherlink.com 1.10,2013-10-04 00:54:00,
2013-10-03 20:09:00,71.7,65.0,30.10,SSE,152,0.0,-999.0,80,-99.99,,,0.00,weatherlink.com 1.10,2013-10-04 01:09:00,
2013-10-03 20:24:00,71.3,65.0,30.10,SSE,152,0.0,-999.0,81,-99.99,,,0.00,weatherlink.com 1.10,2013-10-04 01:24:00,
2013-10-03 20:39:00,71.1,65.0,30.11,SSE,152,0.0,-999.0,81,-99.99,,,0.00,weatherlink.com 1.10,2013-10-04 01:39:00,
2013-10-03 20:54:00,70.6,65.0,30.11,SSE,152,0.0,-999.0,82,-99.99,,,0.00,weatherlink.com 1.10,2013-10-04 01:54:00,
2013-10-03 21:10:00,70.2,65.0,30.12,SSE,152,0.0,-999.0,83,-99.99,,,0.00,weatherlink.com 1.10,2013-10-04 02:10:00,
2013-10-03 21:25:00,69.8,65.0,30.12,SSE,152,0.0,-999.0,84,-99.99,,,0.00,weatherlink.com 1.10,2013-10-04 02:25:00,
2013-10-03 21:40:00,69.3,65.0,30.13,SSE,152,0.0,-999.0,85,-99.99,,,0.00,weatherlink.com 1.10,2013-10-04 02:40:00,
2013-10-03 21:55:00,69.0,65.0,30.13,SSE,152,0.0,-999.0,86,-99.99,,,0.00,weatherlink.com 1.10,2013-10-04 02:55:00,
2013-10-03 22:10:00,67.9,64.0,30.13,SSE,152,0.0,-999.0,88,-99.99,,,0.00,weatherlink.com 1.10,2013-10-04 03:10:00,
2013-10-03 22:25:00,67.6,64.0,30.14,SSE,152,0.0,-999.0,89,-99.99,,,0.00,weatherlink.com 1.10,2013-10-04 03:25:00,
2013-10-03 22:40:00,67.5,64.0,30.13,SSE,152,0.0,-999.0,89,-99.99,,,0.00,weatherlink.com 1.10,2013-10-04 03:40:00,
2013-10-03 22:55:00,67.0,64.0,30.13,SSE,152,0.0,-999.0,89,-99.99,,,0.00,weatherlink.com 1.10,2013-10-04 03:55:00,
2013-10-03 23:40:00,65.9,63.0,30.13,ENE,62,0.0,-999.0,91,-99.99,,,0.00,weatherlink.com 1.10,2013-10-04 04:40:00,
2013-10-03 23:55:00,66.4,64.0,30.12,ENE,62,0.0,-999.0,90,-99.99,,,0.00,weatherlink.com 1.10,2013-10-04 04:55:00,